createdAt,value
2022-10-19T00:01:02.246Z,22.42
2022-10-19T00:07:31.986Z,21.55
2022-10-19T00:09:59.989Z,23.08
2022-10-19T00:13:24.453Z,22.45
2022-10-19T00:15:52.089Z,20.25
2022-10-19T00:18:19.817Z,26.02
2022-10-19T00:20:47.685Z,20.83
2022-10-19T00:23:20.963Z,21.92
2022-10-19T00:26:38.336Z,25.92
2022-10-19T00:29:07.206Z,20.45
2022-10-19T00:35:48.450Z,18.05
2022-10-19T00:38:23.490Z,24.40
2022-10-19T00:40:51.253Z,22.02
2022-10-19T00:43:21.573Z,22.35
2022-10-19T00:45:49.217Z,22.67
2022-10-19T00:48:20.193Z,21.58
2022-10-19T00:50:50.988Z,21.77
2022-10-19T00:53:18.724Z,19.67
2022-10-19T00:55:48.126Z,21.40
2022-10-19T00:58:28.721Z,21.23
2022-10-19T01:02:17.597Z,22.65
2022-10-19T01:04:49.653Z,22.25
2022-10-19T01:07:31.345Z,23.88
2022-10-19T01:10:00.305Z,26.15
2022-10-19T01:12:52.867Z,26.15
2022-10-19T01:16:20.057Z,25.55
2022-10-19T01:18:55.315Z,22.23
2022-10-19T01:21:26.041Z,26.30
2022-10-19T01:24:38.444Z,29.83
2022-10-19T01:27:42.594Z,31.10
2022-10-19T01:30:33.513Z,30.52
2022-10-19T01:33:17.091Z,36.30
2022-10-19T01:36:25.643Z,31.38
2022-10-19T01:39:00.691Z,32.33
2022-10-19T01:41:36.733Z,31.25
2022-10-19T01:44:32.306Z,30.67
2022-10-19T01:51:17.288Z,32.20
2022-10-19T01:53:49.946Z,40.00
2022-10-19T01:57:25.391Z,43.97
2022-10-19T01:59:55.372Z,42.70
2022-10-19T02:02:27.862Z,40.70
2022-10-19T02:05:18.291Z,42.63
2022-10-19T02:07:50.498Z,39.72
2022-10-19T02:10:29.013Z,34.33
2022-10-19T02:12:59.224Z,32.83
2022-10-19T02:15:29.318Z,35.65
2022-10-19T02:22:01.002Z,35.08
2022-10-19T02:24:28.700Z,34.17
2022-10-19T02:26:57.346Z,30.63
2022-10-19T02:29:25.161Z,32.70
2022-10-19T02:32:18.314Z,35.30
2022-10-19T02:34:47.554Z,37.13
2022-10-19T02:37:15.445Z,38.70
2022-10-19T02:39:43.551Z,34.95
2022-10-19T02:42:14.804Z,35.25
2022-10-19T02:49:05.070Z,32.00
2022-10-19T02:51:36.632Z,32.83
2022-10-19T02:54:06.088Z,29.60
2022-10-19T02:56:34.538Z,36.15
2022-10-19T02:59:05.563Z,32.88
2022-10-19T03:01:33.214Z,31.17
2022-10-19T03:04:00.870Z,31.23
2022-10-19T03:07:30.317Z,37.45
2022-10-19T03:09:59.534Z,33.70
2022-10-19T03:12:27.195Z,37.08
2022-10-19T03:14:54.842Z,37.28
2022-10-19T03:17:22.573Z,38.55
2022-10-19T03:20:28.967Z,31.45
2022-10-19T03:22:56.627Z,35.25
2022-10-19T03:25:25.843Z,35.65
2022-10-19T03:28:24.976Z,34.83
2022-10-19T03:30:52.640Z,34.35
2022-10-19T03:33:23.563Z,35.65
2022-10-19T03:35:51.422Z,38.33
2022-10-19T03:38:19.122Z,40.10
2022-10-19T03:41:36.472Z,35.92
2022-10-19T03:44:06.086Z,38.38
2022-10-19T03:50:14.446Z,39.30
2022-10-19T03:53:33.235Z,42.30
2022-10-19T03:56:28.198Z,37.45
2022-10-19T03:58:57.701Z,40.22
2022-10-19T04:01:28.357Z,38.22
2022-10-19T04:03:57.056Z,36.95
2022-10-19T04:06:32.979Z,41.45
2022-10-19T04:09:00.720Z,35.03
2022-10-19T04:11:30.582Z,39.67
2022-10-19T04:18:07.006Z,36.67
2022-10-19T04:20:34.863Z,43.63
2022-10-19T04:23:02.643Z,44.20
2022-10-19T04:25:30.336Z,41.28
2022-10-19T04:28:23.374Z,39.92
2022-10-19T04:30:51.029Z,38.53
2022-10-19T04:33:20.227Z,39.05
2022-10-19T04:35:47.978Z,41.20
2022-10-19T04:38:15.705Z,40.97
2022-10-19T04:41:17.992Z,35.97
2022-10-19T04:43:46.264Z,39.08
2022-10-19T04:46:16.293Z,33.28
2022-10-19T04:49:22.790Z,38.30
2022-10-19T04:51:50.430Z,36.38
2022-10-19T04:54:21.057Z,34.22
2022-10-19T04:56:48.769Z,33.08
2022-10-19T04:59:16.519Z,35.30
2022-10-19T05:02:34.492Z,34.60
2022-10-19T05:05:03.499Z,33.90
2022-10-19T05:11:44.691Z,37.13
2022-10-19T05:15:25.965Z,35.05
2022-10-19T05:17:53.615Z,37.33
2022-10-19T05:20:22.568Z,37.28
2022-10-19T05:23:40.410Z,34.30
2022-10-19T05:26:10.442Z,32.70
2022-10-19T05:28:38.789Z,34.58
2022-10-19T05:31:11.654Z,31.85
2022-10-19T05:33:39.824Z,34.67
2022-10-19T05:36:35.100Z,30.95
2022-10-19T05:39:06.195Z,31.83
2022-10-19T05:41:41.795Z,30.50
2022-10-19T05:44:14.570Z,34.97
2022-10-19T05:46:42.397Z,32.22
2022-10-19T05:49:17.156Z,28.55
2022-10-19T05:51:46.211Z,27.42
2022-10-19T05:54:14.582Z,26.00
2022-10-19T05:57:32.992Z,27.15
2022-10-19T06:00:00.922Z,27.70
2022-10-19T06:02:28.646Z,29.05
2022-10-19T06:04:56.310Z,30.67
2022-10-19T06:07:25.516Z,30.23
2022-10-19T06:10:20.897Z,26.58
2022-10-19T06:12:48.674Z,25.42
2022-10-19T06:15:16.920Z,28.13
2022-10-19T06:17:44.697Z,22.95
2022-10-19T06:20:13.294Z,30.45
2022-10-19T06:23:20.678Z,26.30
2022-10-19T06:25:48.526Z,23.70
2022-10-19T06:28:38.257Z,24.83
2022-10-19T06:31:15.083Z,27.58
2022-10-19T06:33:50.130Z,22.42
2022-10-19T06:36:20.551Z,24.20
2022-10-19T06:39:10.856Z,24.27
2022-10-19T06:41:39.538Z,25.05
2022-10-19T06:44:20.808Z,26.80
2022-10-19T06:46:48.938Z,28.80
2022-10-19T06:49:16.738Z,28.95
2022-10-19T06:51:44.358Z,28.73
2022-10-19T06:54:13.501Z,28.23
2022-10-19T06:56:41.256Z,24.95
2022-10-19T06:59:09.299Z,24.50
2022-10-19T07:01:36.962Z,32.78
2022-10-19T07:04:04.822Z,24.85
2022-10-19T07:06:32.845Z,25.30
2022-10-19T07:09:01.022Z,25.75
2022-10-19T07:11:30.190Z,23.63
2022-10-19T07:13:57.941Z,23.63
2022-10-19T07:16:25.626Z,27.27
2022-10-19T07:18:54.260Z,24.70
2022-10-19T07:21:23.988Z,24.92
2022-10-19T07:23:52.114Z,26.23
2022-10-19T07:26:23.418Z,25.08
2022-10-19T07:28:52.741Z,29.30
2022-10-19T07:31:22.749Z,25.70
2022-10-19T07:33:53.724Z,26.88
2022-10-19T07:36:21.907Z,26.02
2022-10-19T07:38:49.599Z,27.77
2022-10-19T07:41:19.374Z,23.98
2022-10-19T07:43:48.480Z,25.70
2022-10-19T07:46:19.411Z,26.92
2022-10-19T07:48:48.281Z,24.92
2022-10-19T07:51:18.084Z,22.80
2022-10-19T07:53:46.351Z,23.70
2022-10-19T07:56:16.111Z,26.80
2022-10-19T07:58:44.379Z,23.83
2022-10-19T08:01:14.449Z,25.55
2022-10-19T08:04:42.722Z,27.38
2022-10-19T08:06:31.629Z,25.83
2022-10-19T08:08:59.545Z,25.27
2022-10-19T08:11:29.389Z,22.27
2022-10-19T08:13:58.590Z,26.02
2022-10-19T08:16:28.627Z,24.33
2022-10-19T08:19:00.461Z,26.45
2022-10-19T08:21:29.819Z,23.20
2022-10-19T08:23:57.889Z,24.58
2022-10-19T08:26:26.560Z,22.98
2022-10-19T08:28:54.372Z,22.90
2022-10-19T08:31:23.538Z,22.58
2022-10-19T08:33:51.931Z,21.20
2022-10-19T08:36:21.469Z,21.73
2022-10-19T08:38:50.573Z,19.88
2022-10-19T08:41:25.805Z,20.77
2022-10-19T08:44:09.347Z,22.10
2022-10-19T08:46:50.368Z,21.50
2022-10-19T08:49:21.303Z,23.02
2022-10-19T08:51:55.349Z,22.33
2022-10-19T08:54:23.773Z,19.55
2022-10-19T08:57:01.273Z,18.45
2022-10-19T08:59:38.914Z,21.75
2022-10-19T09:02:15.771Z,20.50
2022-10-19T09:04:48.932Z,17.00
2022-10-19T09:07:26.678Z,19.65
2022-10-19T09:09:59.635Z,23.30
2022-10-19T09:12:36.376Z,20.95
2022-10-19T09:15:07.024Z,20.58
2022-10-19T09:17:35.152Z,20.30
2022-10-19T09:20:15.377Z,18.50
2022-10-19T09:22:45.605Z,20.75
2022-10-19T09:25:26.457Z,20.35
2022-10-19T09:30:39.183Z,20.30
2022-10-19T09:33:15.404Z,20.92
2022-10-19T09:35:46.568Z,17.50
2022-10-19T09:38:17.610Z,17.85
2022-10-19T09:40:46.693Z,22.50
2022-10-19T09:43:21.518Z,20.58
2022-10-19T09:45:53.484Z,19.45
2022-10-19T09:48:28.629Z,19.42
2022-10-19T09:50:59.428Z,22.73
2022-10-19T09:53:29.216Z,18.95
2022-10-19T09:56:06.142Z,20.08
2022-10-19T09:58:34.549Z,23.98
2022-10-19T10:01:03.869Z,18.73
2022-10-19T10:03:35.157Z,21.60
2022-10-19T10:06:06.848Z,20.00
2022-10-19T10:08:37.568Z,16.23
2022-10-19T10:11:11.321Z,24.08
2022-10-19T10:13:41.388Z,22.42
2022-10-19T10:16:15.338Z,18.58
2022-10-19T10:18:52.802Z,22.65
2022-10-19T10:21:25.908Z,20.60
2022-10-19T10:24:02.313Z,17.83
2022-10-19T10:26:31.896Z,24.48
2022-10-19T10:29:01.474Z,18.98
2022-10-19T10:31:32.057Z,19.58
2022-10-19T10:34:11.022Z,17.75
2022-10-19T10:36:54.728Z,22.90
2022-10-19T10:39:24.848Z,16.60
2022-10-19T10:41:54.677Z,19.40
2022-10-19T10:44:26.357Z,19.70
2022-10-19T10:46:57.376Z,15.70
2022-10-19T10:49:28.872Z,16.92
2022-10-19T10:52:02.478Z,16.55
2022-10-19T10:54:32.173Z,16.80
2022-10-19T10:57:09.255Z,17.95
2022-10-19T10:59:45.498Z,15.75
2022-10-19T11:05:00.535Z,15.52
2022-10-19T11:07:31.036Z,17.20
2022-10-19T11:10:02.581Z,14.50
2022-10-19T11:12:37.591Z,14.07
2022-10-19T11:15:14.666Z,15.20
2022-10-19T11:17:56.567Z,12.80
2022-10-19T11:20:30.590Z,14.38
2022-10-19T11:23:07.363Z,13.40
2022-10-19T11:25:47.012Z,15.80
2022-10-19T11:28:26.640Z,15.63
2022-10-19T11:31:02.260Z,14.73
2022-10-19T11:33:44.462Z,13.23
2022-10-19T11:36:23.534Z,15.93
2022-10-19T11:39:02.007Z,15.18
2022-10-19T11:41:36.751Z,13.02
2022-10-19T11:44:24.370Z,12.88
2022-10-19T11:47:09.055Z,18.27
2022-10-19T11:49:51.963Z,15.05
2022-10-19T11:52:31.750Z,13.73
2022-10-19T11:55:14.506Z,13.70
2022-10-19T11:57:48.435Z,13.10
2022-10-19T12:00:38.078Z,11.98
2022-10-19T12:03:42.415Z,13.88
2022-10-19T12:06:17.899Z,12.18
2022-10-19T12:09:05.367Z,15.93
2022-10-19T12:11:45.928Z,11.15
2022-10-19T12:14:18.830Z,13.38
2022-10-19T12:16:51.688Z,12.18
2022-10-19T12:19:23.408Z,11.68
2022-10-19T12:21:53.421Z,12.43
2022-10-19T12:24:24.248Z,12.30
2022-10-19T12:26:54.793Z,14.27
2022-10-19T12:29:25.134Z,17.48
2022-10-19T12:31:56.412Z,13.23
2022-10-19T12:34:34.866Z,14.23
2022-10-19T12:37:10.894Z,14.05
2022-10-19T12:39:46.822Z,12.93
2022-10-19T12:42:24.223Z,9.15
2022-10-19T12:45:15.562Z,11.13
2022-10-19T12:48:21.279Z,12.75
2022-10-19T12:51:03.007Z,11.85
2022-10-19T12:53:35.920Z,11.68
2022-10-19T12:56:06.380Z,13.95
2022-10-19T12:58:43.626Z,10.10
2022-10-19T13:01:19.319Z,8.93
2022-10-19T13:03:51.529Z,8.18
2022-10-19T13:06:32.326Z,12.65
2022-10-19T13:09:03.673Z,8.07
2022-10-19T13:11:32.130Z,6.82
2022-10-19T13:14:02.687Z,8.25
2022-10-19T13:16:58.389Z,7.32
2022-10-19T13:19:28.025Z,7.60
2022-10-19T13:22:24.252Z,6.13
2022-10-19T13:25:21.279Z,5.60
2022-10-19T13:27:49.884Z,7.25
2022-10-19T13:30:51.186Z,7.95
2022-10-19T13:33:51.730Z,6.20
2022-10-19T13:36:22.482Z,6.40
2022-10-19T13:39:16.447Z,4.95
2022-10-19T13:41:52.910Z,7.32
2022-10-19T13:44:27.150Z,5.70
2022-10-19T13:47:23.871Z,6.07
2022-10-19T13:50:27.371Z,8.50
2022-10-19T13:53:28.720Z,7.90
2022-10-19T13:56:09.231Z,5.22
2022-10-19T13:59:17.435Z,6.63
2022-10-19T14:01:56.754Z,4.40
2022-10-19T14:04:37.247Z,12.15
2022-10-19T14:07:13.536Z,4.20
2022-10-19T14:10:14.183Z,4.43
2022-10-19T14:12:44.856Z,6.15
2022-10-19T14:15:20.707Z,4.95
2022-10-19T14:17:48.522Z,4.82
2022-10-19T14:20:28.303Z,5.28
2022-10-19T14:22:55.981Z,5.30
2022-10-19T14:25:26.957Z,6.22
2022-10-19T14:28:02.127Z,5.00
2022-10-19T14:30:32.316Z,5.90
2022-10-19T14:33:02.407Z,10.27
2022-10-19T14:35:33.035Z,5.05
2022-10-19T14:38:01.460Z,7.32
2022-10-19T14:40:32.982Z,7.65
2022-10-19T14:43:02.018Z,6.03
2022-10-19T14:45:31.975Z,6.32
2022-10-19T14:48:02.428Z,5.80
2022-10-19T14:50:40.115Z,7.85
2022-10-19T14:53:22.389Z,7.13
2022-10-19T14:55:53.165Z,5.85
2022-10-19T14:58:24.010Z,6.75
2022-10-19T15:00:53.632Z,5.97
2022-10-19T15:03:25.126Z,7.43
2022-10-19T15:05:57.299Z,8.55
2022-10-19T15:08:33.712Z,5.55
2022-10-19T15:11:02.797Z,6.10
2022-10-19T15:13:34.469Z,8.27
2022-10-19T15:16:02.482Z,7.90
2022-10-19T15:18:48.857Z,7.53
2022-10-19T15:21:20.737Z,7.18
2022-10-19T15:23:49.167Z,7.18
2022-10-19T15:26:21.535Z,6.35
2022-10-19T15:28:50.351Z,11.38
2022-10-19T15:31:20.737Z,7.50
2022-10-19T15:33:51.775Z,8.80
2022-10-19T15:36:21.157Z,7.20
2022-10-19T15:38:50.339Z,8.27
2022-10-19T15:41:22.497Z,7.55
2022-10-19T15:43:52.191Z,6.65
2022-10-19T15:46:35.684Z,8.63
2022-10-19T15:49:20.907Z,7.20
2022-10-19T15:51:49.414Z,6.30
2022-10-19T15:54:19.137Z,6.82
2022-10-19T15:56:53.044Z,6.78
2022-10-19T15:59:23.748Z,6.75
2022-10-19T16:01:53.811Z,6.53
2022-10-19T16:04:23.778Z,7.55
2022-10-19T16:06:51.995Z,6.85
2022-10-19T16:09:22.274Z,5.72
2022-10-19T16:11:56.510Z,9.50
2022-10-19T16:14:24.345Z,6.35
2022-10-19T16:16:52.217Z,5.63
2022-10-19T16:19:19.983Z,6.00
2022-10-19T16:21:50.244Z,5.95
2022-10-19T16:24:18.307Z,7.05
2022-10-19T16:26:45.944Z,6.43
2022-10-19T16:29:15.094Z,6.90
2022-10-19T16:31:42.723Z,9.57
2022-10-19T16:34:10.390Z,8.10
2022-10-19T16:36:38.081Z,7.72
2022-10-19T16:39:05.747Z,8.75
2022-10-19T16:41:33.631Z,8.88
2022-10-19T16:44:01.310Z,8.48
2022-10-19T16:46:30.330Z,9.15
2022-10-19T16:48:57.969Z,9.27
2022-10-19T16:51:28.623Z,11.55
2022-10-19T16:53:58.931Z,13.95
2022-10-19T16:56:28.679Z,16.33
2022-10-19T16:58:58.010Z,12.57
2022-10-19T17:01:25.696Z,11.35
2022-10-19T17:03:55.369Z,16.98
2022-10-19T17:06:24.376Z,14.57
2022-10-19T17:09:23.618Z,9.82
2022-10-19T17:11:41.270Z,9.32
2022-10-19T17:14:12.678Z,8.43
2022-10-19T17:16:40.444Z,8.55
2022-10-19T17:19:11.163Z,8.23
2022-10-19T17:21:41.962Z,9.00
2022-10-19T17:24:17.147Z,7.65
2022-10-19T17:26:50.390Z,10.57
2022-10-19T17:29:18.267Z,8.50
2022-10-19T17:31:46.428Z,10.38
2022-10-19T17:34:17.550Z,8.40
2022-10-19T17:36:46.489Z,9.57
2022-10-19T17:39:17.887Z,13.25
2022-10-19T17:41:45.851Z,10.77
2022-10-19T17:44:15.198Z,10.45
2022-10-19T17:46:43.226Z,13.02
2022-10-19T17:49:11.621Z,12.48
2022-10-19T17:51:41.360Z,9.75
2022-10-19T17:54:11.954Z,16.15
2022-10-19T17:56:40.492Z,15.68
2022-10-19T17:59:09.099Z,10.05
2022-10-19T18:01:37.875Z,11.63
2022-10-19T18:04:06.421Z,9.85
2022-10-19T18:06:35.892Z,13.90
2022-10-19T18:09:07.885Z,11.07
2022-10-19T18:11:38.499Z,14.38
2022-10-19T18:14:08.886Z,11.43
2022-10-19T18:16:38.963Z,12.40
2022-10-19T18:19:07.478Z,16.08
2022-10-19T18:21:38.573Z,12.80
2022-10-19T18:24:12.709Z,13.38
2022-10-19T18:26:44.224Z,12.73
2022-10-19T18:29:14.186Z,12.45
2022-10-19T18:31:42.422Z,13.45
2022-10-19T18:34:14.519Z,14.25
2022-10-19T18:36:42.477Z,13.45
2022-10-19T18:39:13.589Z,16.33
2022-10-19T18:41:42.015Z,14.65
2022-10-19T18:44:13.278Z,15.80
2022-10-19T18:46:41.405Z,20.50
2022-10-19T18:49:10.087Z,15.45
2022-10-19T18:51:37.951Z,14.70
2022-10-19T18:54:05.760Z,15.45
2022-10-19T18:56:36.371Z,15.13
2022-10-19T18:59:05.239Z,14.75
2022-10-19T19:01:33.096Z,14.20
2022-10-19T19:04:07.995Z,12.68
2022-10-19T19:06:36.359Z,14.48
2022-10-19T19:09:07.384Z,12.27
2022-10-19T19:11:40.596Z,12.73
2022-10-19T19:14:11.886Z,14.68
2022-10-19T19:16:40.658Z,14.40
2022-10-19T19:19:08.970Z,14.40
2022-10-19T19:21:37.326Z,13.00
2022-10-19T19:24:07.631Z,17.50
2022-10-19T19:26:43.484Z,16.63
2022-10-19T19:29:11.567Z,15.50
2022-10-19T19:31:39.566Z,13.60
2022-10-19T19:34:09.274Z,13.55
2022-10-19T19:36:37.490Z,17.42
2022-10-19T19:39:05.872Z,12.85
2022-10-19T19:41:34.089Z,17.17
2022-10-19T19:44:03.283Z,24.15
2022-10-19T19:46:31.130Z,20.95
2022-10-19T19:49:00.936Z,18.83
2022-10-19T19:51:29.851Z,18.75
2022-10-19T19:53:57.859Z,16.33
2022-10-19T19:56:26.519Z,18.45
2022-10-19T19:58:55.833Z,16.33
2022-10-19T20:01:25.761Z,16.90
2022-10-19T20:03:53.716Z,21.77
2022-10-19T20:06:25.019Z,18.10
2022-10-19T20:08:54.176Z,21.30
2022-10-19T20:11:22.257Z,20.33
2022-10-19T20:13:50.371Z,20.42
2022-10-19T20:16:22.702Z,19.80
2022-10-19T20:19:00.156Z,19.58
2022-10-19T20:21:28.204Z,18.70
2022-10-19T20:23:55.966Z,18.25
2022-10-19T20:26:25.536Z,17.92
2022-10-19T20:28:54.300Z,20.20
2022-10-19T20:31:22.883Z,17.48
2022-10-19T20:33:50.731Z,18.48
2022-10-19T20:36:21.481Z,21.95
2022-10-19T20:38:51.048Z,18.10
2022-10-19T20:41:20.395Z,21.23
2022-10-19T20:43:48.420Z,20.67
2022-10-19T20:46:19.168Z,20.33
2022-10-19T20:48:46.985Z,20.20
2022-10-19T20:51:16.776Z,20.48
2022-10-19T20:53:47.759Z,24.15
2022-10-19T20:56:17.964Z,19.55
2022-10-19T20:58:47.046Z,20.38
2022-10-19T21:01:17.760Z,22.02
2022-10-19T21:03:47.634Z,23.48
2022-10-19T21:06:15.829Z,18.88
2022-10-19T21:08:44.956Z,20.73
2022-10-19T21:11:14.038Z,18.65
2022-10-19T21:13:42.071Z,16.65
2022-10-19T21:16:11.058Z,20.35
2022-10-19T21:18:38.924Z,19.38
2022-10-19T21:21:14.826Z,18.20
2022-10-19T21:23:43.539Z,20.15
2022-10-19T21:26:13.331Z,21.73
2022-10-19T21:28:45.818Z,22.23
2022-10-19T21:31:13.691Z,19.35
2022-10-19T21:33:41.387Z,21.77
2022-10-19T21:36:10.628Z,21.48
2022-10-19T21:38:38.595Z,19.10
2022-10-19T21:41:08.510Z,20.02
2022-10-19T21:43:37.643Z,25.23
2022-10-19T21:46:06.493Z,23.17
2022-10-19T21:48:34.952Z,22.20
2022-10-19T21:51:13.622Z,23.20
2022-10-19T21:53:41.357Z,23.67
2022-10-19T21:56:09.107Z,19.73
2022-10-19T21:58:38.275Z,20.55
2022-10-19T22:01:06.932Z,22.95
2022-10-19T22:03:35.270Z,22.08
2022-10-19T22:06:02.906Z,20.77
2022-10-19T22:08:30.667Z,23.30
2022-10-19T22:10:58.369Z,20.48
2022-10-19T22:13:26.018Z,19.33
2022-10-19T22:15:55.102Z,21.27
2022-10-19T22:18:22.867Z,20.98
2022-10-19T22:20:50.602Z,23.92
2022-10-19T22:23:18.249Z,20.35
2022-10-19T22:25:45.948Z,20.45
2022-10-19T22:28:13.633Z,20.73
2022-10-19T22:30:44.947Z,19.90
2022-10-19T22:33:14.656Z,21.33
2022-10-19T22:35:42.307Z,18.33
2022-10-19T22:38:09.983Z,22.27
2022-10-19T22:40:37.645Z,23.05
2022-10-19T22:43:06.800Z,17.40
2022-10-19T22:45:34.698Z,21.17
2022-10-19T22:48:02.330Z,19.42
2022-10-19T22:50:31.373Z,22.15
2022-10-19T22:52:59.131Z,19.45
2022-10-19T22:55:26.799Z,18.88
2022-10-19T22:57:54.607Z,19.65
2022-10-19T23:00:22.322Z,18.05
2022-10-19T23:02:49.990Z,21.38
2022-10-19T23:05:17.711Z,18.70
2022-10-19T23:07:47.099Z,19.48
2022-10-19T23:10:14.935Z,18.15
2022-10-19T23:12:42.685Z,16.90
2022-10-19T23:15:11.679Z,19.77
2022-10-19T23:17:39.474Z,19.35
2022-10-19T23:20:08.640Z,19.52
2022-10-19T23:22:36.314Z,17.58
2022-10-19T23:25:06.418Z,19.05
2022-10-19T23:27:34.500Z,18.48
2022-10-19T23:30:03.679Z,19.50
2022-10-19T23:32:31.359Z,23.13
2022-10-19T23:34:59.242Z,20.80
2022-10-19T23:37:26.886Z,21.23
2022-10-19T23:39:54.546Z,20.75
2022-10-19T23:42:24.187Z,17.23
2022-10-19T23:44:51.806Z,23.55
2022-10-19T23:47:19.972Z,19.30
2022-10-19T23:49:47.937Z,18.27
2022-10-19T23:52:15.649Z,20.17
2022-10-19T23:54:43.333Z,17.25
2022-10-19T23:57:11.014Z,19.08
2022-10-19T23:59:39.950Z,19.63
